Florence, SC

6:41 PM EST on February 08, 2016 (GMT -0500)
Forest Hills | | Change Station
CLOSE
Current Station
Personal Weather Station
Location: Florence, SC
Elevation: 115 ft
Nearby Weather Stations

Elev 115 ft 34.18 °N, 79.78 °W | Updated 12 minutes ago

Rain
Rain
45.0 °F
Feels Like 45 °F
N
0.0
Wind Variable Wind from SW

Today
High -- | Low -- °F
--% Chance of Precip.
Yesterday
High -- | Low -- °F
Precip. -- in
Pressure 29.70 in
Visibility 10.0 miles
Clouds Few 1700 ft
Overcast 3600 ft
Windchill 45 °F
Dew Point 40 °F
Humidity 81%
Rainfall 0.09 in
Snow Depth Not available.
7:11 AM 5:55 PM
New Moon, 0% visible
SPECI KFLO 082322Z 23014G27KT 10SM -RA FEW017 OVC036 08/04 A2970 RMK AO2 PK WND 24027/2313 WSHFT 2302 P0003 T00780039
Pressure 29.70 in
Visibility 10.0 miles
Clouds Few 1700 ft
Overcast 3600 ft
Windchill 45 °F
Dew Point 40 °F
Humidity 81%
Rainfall 0.09 in
Snow Depth Not available.
7:11 AM 5:55 PM
New Moon, 0% visible
SPECI KFLO 082322Z 23014G27KT 10SM -RA FEW017 OVC036 08/04 A2970 RMK AO2 PK WND 24027/2313 WSHFT 2302 P0003 T00780039

10-Day Weather Forecast

Almanac

Astronomy

Feb. 08, 2016 Rise Set
Actual Time
Civil Twilight
Nautical Twilight
Astronomical Twilight
Moon
Length of Visible Light
Length of Day
Tomorrow will be .
, % of the Moon is Illuminated

Today's Extremes

State Highs State Lows

Community

WunderPhotos

Upload Photos

1,891,527 photos uploaded!

WunderBlog® & News

Nearby

Air Quality

  Air Quality AQ Index Pollutant
Not available.

Snow Depth

Station Depth Elevation

Earthquake Activity

City Distance Mag. Time & Date
Minimum magnitude displayed is 2.5.

Coastal Water Temperatures

Place Temperature

Stations

Nearby Weather Stations

Station Location Temp. Windchill Dew Point Humidity Wind Precip. Elev Updated Type
                   

Watches & Warnings

Flood Warning
Issued: 11:18 AM EST Feb. 8, 2016 – National Weather Service

The Flood Warning continues for
the great Pee Dee at Pee Dee.
* Until further notice.
* At 11:00 am Monday the stage was 21.78 feet.
* Flood stage is 19.0 feet.
* Minor flooding is occurring and minor flooding is forecast.
* Forecast... the river will continue rising to near 21.9 feet by this evening
then begin falling.
* Impact... at 23.0 feet... flooding will affect swamp and timberlands while also
disrupting logging operations. Operations will likely cease and equipment not
previously moved will remain trapped. Some farmland will have minor flooding
especially around Britton Neck.


Lat... Lon 3424 7962 3424 7950 3400 7945 3385 7932
          3385 7944 3398 7957